createdAt,value
2018-07-16T00:01:00.000Z,98619
2018-07-16T00:06:00.000Z,98621
2018-07-16T00:11:00.000Z,98618
2018-07-16T00:16:00.000Z,98615
2018-07-16T00:21:00.000Z,98619
2018-07-16T00:26:00.000Z,98619
2018-07-16T00:31:00.000Z,98619
2018-07-16T00:36:00.000Z,98615
2018-07-16T00:41:00.000Z,98611
2018-07-16T00:46:00.000Z,98611
2018-07-16T00:51:00.000Z,98610
2018-07-16T00:56:00.000Z,98607
2018-07-16T01:01:00.000Z,98594
2018-07-16T01:06:00.000Z,98590
2018-07-16T01:11:00.000Z,98585
2018-07-16T01:16:00.000Z,98581
2018-07-16T01:21:00.000Z,98582
2018-07-16T01:26:00.000Z,98588
2018-07-16T01:31:00.000Z,98572
2018-07-16T01:36:00.000Z,98575
2018-07-16T01:41:00.000Z,98577
2018-07-16T01:46:00.000Z,98582
2018-07-16T01:51:00.000Z,98573
2018-07-16T01:56:00.000Z,98575
2018-07-16T02:01:00.000Z,98571
2018-07-16T02:06:00.000Z,98574
2018-07-16T02:11:00.000Z,98581
2018-07-16T02:16:00.000Z,98573
2018-07-16T02:21:00.000Z,98574
2018-07-16T02:26:00.000Z,98566
2018-07-16T02:31:00.000Z,98568
2018-07-16T02:36:00.000Z,98566
2018-07-16T02:41:00.000Z,98560
2018-07-16T02:46:00.000Z,98569
2018-07-16T02:51:00.000Z,98569
2018-07-16T02:56:00.000Z,98567
2018-07-16T03:01:00.000Z,98563
2018-07-16T03:06:00.000Z,98552
2018-07-16T03:11:00.000Z,98555
2018-07-16T03:16:00.000Z,98546
2018-07-16T03:21:00.000Z,98547
2018-07-16T03:26:00.000Z,98552
2018-07-16T03:31:00.000Z,98561
2018-07-16T03:36:00.000Z,98561
2018-07-16T03:41:00.000Z,98571
2018-07-16T03:46:00.000Z,98573
2018-07-16T03:51:00.000Z,98571
2018-07-16T03:56:00.000Z,98565
2018-07-16T04:01:00.000Z,98567
2018-07-16T04:06:00.000Z,98568
2018-07-16T04:11:00.000Z,98575
2018-07-16T04:16:00.000Z,98570
2018-07-16T04:21:00.000Z,98571
2018-07-16T04:26:00.000Z,98574
2018-07-16T04:31:00.000Z,98564
2018-07-16T04:36:00.000Z,98569
2018-07-16T04:41:00.000Z,98561
2018-07-16T04:46:00.000Z,98564
2018-07-16T04:51:00.000Z,98554
2018-07-16T04:56:00.000Z,98569
2018-07-16T05:01:00.000Z,98569
2018-07-16T05:06:00.000Z,98565
2018-07-16T05:11:00.000Z,98567
2018-07-16T05:16:00.000Z,98567
2018-07-16T05:21:00.000Z,98567
2018-07-16T05:26:00.000Z,98572
2018-07-16T05:31:00.000Z,98569
2018-07-16T05:36:00.000Z,98566
2018-07-16T05:41:00.000Z,98566
2018-07-16T05:47:00.000Z,98572
2018-07-16T05:52:00.000Z,98571
2018-07-16T05:57:00.000Z,98573
2018-07-16T06:02:00.000Z,98577
2018-07-16T06:07:00.000Z,98582
2018-07-16T06:12:00.000Z,98579
2018-07-16T06:17:00.000Z,98586
2018-07-16T06:22:00.000Z,98592
2018-07-16T06:27:00.000Z,98585
2018-07-16T06:32:00.000Z,98570
2018-07-16T06:37:00.000Z,98572
2018-07-16T06:42:00.000Z,98567
2018-07-16T06:47:00.000Z,98564
2018-07-16T06:52:00.000Z,98564
2018-07-16T06:57:00.000Z,98552
2018-07-16T07:02:00.000Z,98558
2018-07-16T07:07:00.000Z,98554
2018-07-16T07:12:00.000Z,98562
2018-07-16T07:17:00.000Z,98556
2018-07-16T07:22:00.000Z,98544
2018-07-16T07:27:00.000Z,98545
2018-07-16T07:32:00.000Z,98545
2018-07-16T07:37:00.000Z,98546
2018-07-16T07:42:00.000Z,98550
2018-07-16T07:47:00.000Z,98542
2018-07-16T07:52:00.000Z,98534
2018-07-16T07:57:00.000Z,98539
2018-07-16T08:02:00.000Z,98533
2018-07-16T08:07:00.000Z,98530
2018-07-16T08:12:00.000Z,98533
2018-07-16T08:17:00.000Z,98539
2018-07-16T08:22:00.000Z,98530
2018-07-16T08:27:00.000Z,98531
2018-07-16T08:32:00.000Z,98535
2018-07-16T08:37:00.000Z,98538
2018-07-16T08:42:00.000Z,98541
2018-07-16T08:47:00.000Z,98542
2018-07-16T08:52:00.000Z,98540
2018-07-16T08:57:00.000Z,98542
2018-07-16T09:02:00.000Z,98547
2018-07-16T09:07:00.000Z,98540
2018-07-16T09:12:00.000Z,98547
2018-07-16T09:17:00.000Z,98541
2018-07-16T09:22:00.000Z,98547
2018-07-16T09:27:00.000Z,98536
2018-07-16T09:32:00.000Z,98539
2018-07-16T09:37:00.000Z,98545
2018-07-16T09:42:00.000Z,98542
2018-07-16T09:47:00.000Z,98533
2018-07-16T09:52:00.000Z,98534
2018-07-16T09:57:00.000Z,98534
2018-07-16T10:02:00.000Z,98533
2018-07-16T10:07:00.000Z,98539
2018-07-16T10:12:00.000Z,98539
2018-07-16T10:17:00.000Z,98533
2018-07-16T10:22:00.000Z,98537
2018-07-16T10:27:00.000Z,98531
2018-07-16T10:32:00.000Z,98528
2018-07-16T10:37:00.000Z,98518
2018-07-16T10:42:00.000Z,98515
2018-07-16T10:47:00.000Z,98519
2018-07-16T10:52:00.000Z,98512
2018-07-16T10:57:00.000Z,98515
2018-07-16T11:02:00.000Z,98512
2018-07-16T11:07:00.000Z,98510
2018-07-16T11:12:00.000Z,98495
2018-07-16T11:17:00.000Z,98496
2018-07-16T11:22:00.000Z,98495
2018-07-16T11:27:00.000Z,98482
2018-07-16T11:32:00.000Z,98483
2018-07-16T11:38:00.000Z,98478
2018-07-16T11:43:00.000Z,98468
2018-07-16T11:48:00.000Z,98459
2018-07-16T11:53:00.000Z,98452
2018-07-16T11:58:00.000Z,98447
2018-07-16T12:03:00.000Z,98450
2018-07-16T12:08:00.000Z,98442
2018-07-16T12:13:00.000Z,98443
2018-07-16T12:18:00.000Z,98445
2018-07-16T12:23:00.000Z,98438
2018-07-16T12:28:00.000Z,98440
2018-07-16T12:33:00.000Z,98426
2018-07-16T12:38:00.000Z,98419
2018-07-16T12:43:00.000Z,98420
2018-07-16T12:48:00.000Z,98418
2018-07-16T12:53:00.000Z,98406
2018-07-16T12:58:00.000Z,98403
2018-07-16T13:03:00.000Z,98399
2018-07-16T13:08:00.000Z,98393
2018-07-16T13:13:00.000Z,98380
2018-07-16T13:18:00.000Z,98381
2018-07-16T13:23:00.000Z,98377
2018-07-16T13:28:00.000Z,98369
2018-07-16T13:33:00.000Z,98364
2018-07-16T13:38:00.000Z,98352
2018-07-16T13:43:00.000Z,98352
2018-07-16T13:48:00.000Z,98347
2018-07-16T13:53:00.000Z,98343
2018-07-16T13:58:00.000Z,98348
2018-07-16T14:03:00.000Z,98371
2018-07-16T14:08:00.000Z,98392
2018-07-16T14:13:00.000Z,98399
2018-07-16T14:18:00.000Z,98397
2018-07-16T14:23:00.000Z,98394
2018-07-16T14:28:00.000Z,98397
2018-07-16T14:33:00.000Z,98400
2018-07-16T14:38:00.000Z,98382
2018-07-16T14:43:00.000Z,98377
2018-07-16T14:48:00.000Z,98373
2018-07-16T14:53:00.000Z,98379
2018-07-16T14:58:00.000Z,98373
2018-07-16T15:03:00.000Z,98359
2018-07-16T15:08:00.000Z,98379
2018-07-16T15:13:00.000Z,98389
2018-07-16T15:18:00.000Z,98392
2018-07-16T15:23:00.000Z,98407
2018-07-16T15:28:00.000Z,98389
2018-07-16T15:33:00.000Z,98379
2018-07-16T15:38:00.000Z,98358
2018-07-16T15:43:00.000Z,98349
2018-07-16T15:48:00.000Z,98342
2018-07-16T15:53:00.000Z,98340
2018-07-16T15:58:00.000Z,98325
2018-07-16T16:03:00.000Z,98325
2018-07-16T16:08:00.000Z,98330
2018-07-16T16:13:00.000Z,98317
2018-07-16T16:18:00.000Z,98308
2018-07-16T16:23:00.000Z,98292
2018-07-16T16:28:00.000Z,98287
2018-07-16T16:33:00.000Z,98269
2018-07-16T16:38:00.000Z,98261
2018-07-16T16:43:00.000Z,98258
2018-07-16T16:48:00.000Z,98251
2018-07-16T16:53:00.000Z,98246
2018-07-16T16:58:00.000Z,98254
2018-07-16T17:03:00.000Z,98239
2018-07-16T17:08:00.000Z,98224
2018-07-16T17:13:00.000Z,98219
2018-07-16T17:18:00.000Z,98213
2018-07-16T17:23:00.000Z,98205
2018-07-16T17:28:00.000Z,98197
2018-07-16T17:34:00.000Z,98200
2018-07-16T17:39:00.000Z,98198
2018-07-16T17:44:00.000Z,98220
2018-07-16T17:49:00.000Z,98220
2018-07-16T17:54:00.000Z,98215
2018-07-16T17:59:00.000Z,98224
2018-07-16T18:04:00.000Z,98216
2018-07-16T18:09:00.000Z,98210
2018-07-16T18:14:00.000Z,98213
2018-07-16T18:19:00.000Z,98216
2018-07-16T18:24:00.000Z,98209
2018-07-16T18:29:00.000Z,98208
2018-07-16T18:34:00.000Z,98219
2018-07-16T18:39:00.000Z,98213
2018-07-16T18:44:00.000Z,98211
2018-07-16T18:49:00.000Z,98214
2018-07-16T18:54:00.000Z,98216
2018-07-16T18:59:00.000Z,98223
2018-07-16T19:04:00.000Z,98223
2018-07-16T19:09:00.000Z,98227
2018-07-16T19:14:00.000Z,98235
2018-07-16T19:19:00.000Z,98233
2018-07-16T19:24:00.000Z,98239
2018-07-16T19:29:00.000Z,98228
2018-07-16T19:34:00.000Z,98221
2018-07-16T19:39:00.000Z,98221
2018-07-16T19:44:00.000Z,98218
2018-07-16T19:49:00.000Z,98224
2018-07-16T19:54:00.000Z,98230
2018-07-16T19:59:00.000Z,98214
2018-07-16T20:04:00.000Z,98227
2018-07-16T20:09:00.000Z,98227
2018-07-16T20:14:00.000Z,98230
2018-07-16T20:19:00.000Z,98225
2018-07-16T20:24:00.000Z,98229
2018-07-16T20:29:00.000Z,98231
2018-07-16T20:34:00.000Z,98234
2018-07-16T20:39:00.000Z,98236
2018-07-16T20:44:00.000Z,98234
2018-07-16T20:49:00.000Z,98235
2018-07-16T20:54:00.000Z,98238
2018-07-16T20:59:00.000Z,98242
2018-07-16T21:04:00.000Z,98237
2018-07-16T21:09:00.000Z,98240
2018-07-16T21:14:00.000Z,98249
2018-07-16T21:19:00.000Z,98246
2018-07-16T21:24:00.000Z,98239
2018-07-16T21:29:00.000Z,98242
2018-07-16T21:34:00.000Z,98249
2018-07-16T21:39:00.000Z,98247
2018-07-16T21:44:00.000Z,98258
2018-07-16T21:49:00.000Z,98264
2018-07-16T21:54:00.000Z,98263
2018-07-16T21:59:00.000Z,98260
2018-07-16T22:04:00.000Z,98264
2018-07-16T22:09:00.000Z,98260
2018-07-16T22:14:00.000Z,98258
2018-07-16T22:19:00.000Z,98257
2018-07-16T22:24:00.000Z,98251
2018-07-16T22:29:00.000Z,98246
2018-07-16T22:34:00.000Z,98230
2018-07-16T22:39:00.000Z,98223
2018-07-16T22:44:00.000Z,98217
2018-07-16T22:49:00.000Z,98219
2018-07-16T22:54:00.000Z,98218
2018-07-16T22:59:00.000Z,98212
2018-07-16T23:05:00.000Z,98209
2018-07-16T23:10:00.000Z,98196
2018-07-16T23:15:00.000Z,98198
2018-07-16T23:20:00.000Z,98201
2018-07-16T23:25:00.000Z,98214
2018-07-16T23:30:00.000Z,98190
2018-07-16T23:35:00.000Z,98200
2018-07-16T23:40:00.000Z,98209
2018-07-16T23:45:00.000Z,98196
2018-07-16T23:50:00.000Z,98194
2018-07-16T23:55:00.000Z,98193
